Аэропорт: Бегишево. Набережные Челны, Нижнекамск

ICAO: UWKE

METAR:
2018/05/20 23:00
UWKE 202300Z 33007MPS 9999 OVC015 08/05 Q1019 R03/190060 NOSIG RMK QFE747/0996
METAR:
2018/05/20 21:21
TAF UWKE 201945Z 2021/2121 32006G12MPS 4000 BR BKN007 
      TEMPO 2021/2103 35007G14MPS 1000 SHRA BKN003 BKN015CB 
      BECMG 2103/2105 9999 NSW SCT020 
      TEMPO 2105/2121 01003G09MPS